ETX2637 EGNX-LIMC
Flight info
| Callsign | ETX2637 |
|---|---|
| Flight time | 1h 28m |
| Altitude | 45000 |
| Route | SAPCO UY53 DTY DCT SILVA UM605 BENSU Q70 BIG UL9 KONAN DCT KOK DCT CIV DCT SUTAL DCT GTQ DCT OBORN DCT DEVDI/N0497F390 DCT BASGO/N0503F290 Z424 AKASU/N0456F190 Z424 RIXUV |
| Aircraft | C750/M-SBDE3FGHRWXY/S |
Departure
| Time | 2026-05-07 11:32 |
|---|---|
| Airport | East Midlands Airport (EGNX) |
Arrival
| Time | 2026-05-07 13:00 |
|---|---|
| Airport | Milan Malpensa International Airport (LIMC) |
| Time | Latitude | Longitude | Altitude | Speed | Heading |
|---|---|---|---|---|---|
| 2026-05-07 11:23 | 52.82676 | -1.33966 | 297 ft | 0 kts | 92° |
| 2026-05-07 11:29 | 52.82680 | -1.33953 | 300 ft | 4 kts | 56° |
| 2026-05-07 11:30 | 52.82697 | -1.33910 | 301 ft | 4 kts | 57° |
| 2026-05-07 11:30 | 52.82712 | -1.33872 | 297 ft | 4 kts | 58° |
| 2026-05-07 11:30 | 52.82729 | -1.33820 | 297 ft | 6 kts | 65° |
| 2026-05-07 11:30 | 52.82749 | -1.33740 | 299 ft | 8 kts | 62° |
| 2026-05-07 11:31 | 52.82790 | -1.33707 | 297 ft | 7 kts | 352° |
| 2026-05-07 11:31 | 52.82847 | -1.33718 | 297 ft | 10 kts | 353° |
| 2026-05-07 11:31 | 52.82919 | -1.33725 | 301 ft | 9 kts | 0° |
| 2026-05-07 11:31 | 52.82987 | -1.33727 | 303 ft | 11 kts | 358° |
| 2026-05-07 11:32 | 52.83084 | -1.33669 | 304 ft | 8 kts | 88° |
| 2026-05-07 11:32 | 52.83106 | -1.32664 | 326 ft | 157 kts | 90° |
| 2026-05-07 11:32 | 52.83142 | -1.30549 | 1130 ft | 207 kts | 93° |
| 2026-05-07 11:33 | 52.82971 | -1.27987 | 2299 ft | 241 kts | 98° |
| 2026-05-07 11:33 | 52.82802 | -1.25025 | 3728 ft | 268 kts | 95° |
| 2026-05-07 11:33 | 52.82805 | -1.22085 | 6235 ft | 251 kts | 94° |
| 2026-05-07 11:33 | 52.82190 | -1.19292 | 7830 ft | 271 kts | 127° |
| 2026-05-07 11:34 | 52.80674 | -1.17515 | 9720 ft | 268 kts | 160° |
| 2026-05-07 11:34 | 52.78841 | -1.16679 | 11289 ft | 283 kts | 169° |
| 2026-05-07 11:34 | 52.76810 | -1.16136 | 12482 ft | 308 kts | 174° |
| 2026-05-07 11:34 | 52.74598 | -1.16582 | 13426 ft | 338 kts | 199° |
| 2026-05-07 11:35 | 52.72538 | -1.18659 | 14555 ft | 353 kts | 218° |
| 2026-05-07 11:35 | 52.70641 | -1.21251 | 16197 ft | 357 kts | 220° |
| 2026-05-07 11:35 | 52.68695 | -1.23875 | 17765 ft | 366 kts | 218° |
| 2026-05-07 11:35 | 52.66658 | -1.26474 | 19254 ft | 375 kts | 217° |
| 2026-05-07 11:36 | 52.64572 | -1.29135 | 20758 ft | 384 kts | 218° |
| 2026-05-07 11:36 | 52.62452 | -1.31907 | 22234 ft | 394 kts | 218° |
| 2026-05-07 11:36 | 52.61026 | -1.33778 | 23009 ft | 397 kts | 218° |
| 2026-05-07 11:36 | 52.58686 | -1.36293 | 23210 ft | 409 kts | 203° |
| 2026-05-07 11:37 | 52.55949 | -1.37519 | 23849 ft | 409 kts | 187° |
| 2026-05-07 11:37 | 52.53102 | -1.37326 | 24375 ft | 412 kts | 169° |
| 2026-05-07 11:37 | 52.49530 | -1.35174 | 25081 ft | 416 kts | 155° |
| 2026-05-07 11:37 | 52.46898 | -1.33157 | 25624 ft | 419 kts | 154° |
| 2026-05-07 11:38 | 52.45113 | -1.31775 | 25990 ft | 421 kts | 155° |
| 2026-05-07 11:38 | 52.42448 | -1.29758 | 26529 ft | 424 kts | 155° |
| 2026-05-07 11:38 | 52.39747 | -1.27750 | 27090 ft | 428 kts | 155° |
| 2026-05-07 11:38 | 52.37031 | -1.25711 | 27629 ft | 431 kts | 154° |
| 2026-05-07 11:39 | 52.34302 | -1.23640 | 28176 ft | 434 kts | 154° |
| 2026-05-07 11:39 | 52.31548 | -1.21560 | 28721 ft | 438 kts | 154° |
| 2026-05-07 11:39 | 52.28809 | -1.19505 | 29245 ft | 441 kts | 154° |
| 2026-05-07 11:39 | 52.26009 | -1.17402 | 29761 ft | 445 kts | 154° |
| 2026-05-07 11:40 | 52.23191 | -1.15275 | 30241 ft | 448 kts | 154° |
| 2026-05-07 11:40 | 52.20350 | -1.13134 | 30679 ft | 451 kts | 154° |
| 2026-05-07 11:40 | 52.17432 | -1.11202 | 31009 ft | 457 kts | 163° |
| 2026-05-07 11:40 | 52.14322 | -1.10170 | 31644 ft | 454 kts | 168° |
| 2026-05-07 11:41 | 52.11231 | -1.09188 | 32322 ft | 452 kts | 167° |
| 2026-05-07 11:41 | 52.08152 | -1.08152 | 32941 ft | 451 kts | 167° |
| 2026-05-07 11:41 | 52.05077 | -1.07123 | 33578 ft | 450 kts | 167° |
| 2026-05-07 11:41 | 52.02012 | -1.06137 | 34168 ft | 449 kts | 168° |
| 2026-05-07 11:42 | 51.98938 | -1.05151 | 34647 ft | 450 kts | 168° |
| 2026-05-07 11:42 | 51.95870 | -1.04147 | 35150 ft | 450 kts | 168° |
| 2026-05-07 11:42 | 51.92796 | -1.03138 | 35660 ft | 451 kts | 168° |
| 2026-05-07 11:42 | 51.89723 | -1.02143 | 36163 ft | 451 kts | 168° |
| 2026-05-07 11:43 | 51.86643 | -1.01151 | 36680 ft | 451 kts | 169° |
| 2026-05-07 11:43 | 51.83565 | -1.00154 | 37203 ft | 451 kts | 169° |
| 2026-05-07 11:43 | 51.80489 | -0.99157 | 37712 ft | 452 kts | 169° |
| 2026-05-07 11:43 | 51.77403 | -0.98162 | 38241 ft | 452 kts | 169° |
| 2026-05-07 11:44 | 51.74318 | -0.97170 | 38774 ft | 452 kts | 169° |
| 2026-05-07 11:44 | 51.71231 | -0.96177 | 39209 ft | 452 kts | 169° |
| 2026-05-07 11:44 | 51.68144 | -0.95184 | 39639 ft | 453 kts | 169° |
| 2026-05-07 11:44 | 51.65074 | -0.94021 | 40044 ft | 454 kts | 163° |
| 2026-05-07 11:45 | 51.62129 | -0.92085 | 40508 ft | 456 kts | 154° |
| 2026-05-07 11:45 | 51.59450 | -0.89405 | 40954 ft | 458 kts | 144° |
| 2026-05-07 11:45 | 51.57057 | -0.86002 | 41399 ft | 460 kts | 135° |
| 2026-05-07 11:45 | 51.55039 | -0.81995 | 41830 ft | 463 kts | 126° |
| 2026-05-07 11:46 | 51.53452 | -0.77484 | 42250 ft | 466 kts | 116° |
| 2026-05-07 11:46 | 51.52302 | -0.72614 | 42661 ft | 468 kts | 109° |
| 2026-05-07 11:46 | 51.51379 | -0.67596 | 43085 ft | 469 kts | 107° |
| 2026-05-07 11:46 | 51.50459 | -0.62576 | 43475 ft | 469 kts | 109° |
| 2026-05-07 11:47 | 51.49309 | -0.57680 | 43848 ft | 469 kts | 115° |
| 2026-05-07 11:47 | 51.47946 | -0.52925 | 44246 ft | 469 kts | 117° |
| 2026-05-07 11:47 | 51.46564 | -0.48182 | 44629 ft | 470 kts | 115° |
| 2026-05-07 11:47 | 51.45337 | -0.43326 | 44981 ft | 471 kts | 112° |
| 2026-05-07 11:48 | 51.44155 | -0.38394 | 45064 ft | 477 kts | 113° |
| 2026-05-07 11:48 | 51.41490 | -0.28471 | 45080 ft | 492 kts | 115° |
| 2026-05-07 11:49 | 51.38820 | -0.18169 | 45083 ft | 508 kts | 114° |
| 2026-05-07 11:49 | 51.36026 | -0.07621 | 45073 ft | 522 kts | 115° |
| 2026-05-07 11:50 | 51.33261 | 0.03121 | 45062 ft | 535 kts | 110° |
| 2026-05-07 11:50 | 51.31661 | 0.14808 | 44981 ft | 549 kts | 100° |
| 2026-05-07 11:50 | 51.31055 | 0.20757 | 44956 ft | 531 kts | 101° |
| 2026-05-07 11:51 | 51.30345 | 0.26389 | 44922 ft | 529 kts | 104° |
| 2026-05-07 11:51 | 51.28834 | 0.37871 | 44888 ft | 529 kts | 102° |
| 2026-05-07 11:52 | 51.27474 | 0.49412 | 44885 ft | 528 kts | 103° |
| 2026-05-07 11:52 | 51.25979 | 0.60883 | 44915 ft | 528 kts | 103° |
| 2026-05-07 11:53 | 51.24551 | 0.72376 | 44956 ft | 528 kts | 103° |
| 2026-05-07 11:53 | 51.23062 | 0.83849 | 45003 ft | 528 kts | 103° |
| 2026-05-07 11:54 | 51.21598 | 0.95324 | 45062 ft | 528 kts | 103° |
| 2026-05-07 11:54 | 51.20102 | 1.06764 | 45075 ft | 527 kts | 103° |
| 2026-05-07 11:55 | 51.18607 | 1.18218 | 45075 ft | 527 kts | 103° |
| 2026-05-07 11:55 | 51.17094 | 1.29653 | 45075 ft | 527 kts | 103° |
| 2026-05-07 11:56 | 51.15951 | 1.41188 | 45076 ft | 528 kts | 96° |
| 2026-05-07 11:56 | 51.15495 | 1.52863 | 45081 ft | 528 kts | 95° |
| 2026-05-07 11:57 | 51.14862 | 1.64510 | 45085 ft | 528 kts | 96° |
| 2026-05-07 11:57 | 51.14317 | 1.76163 | 45085 ft | 528 kts | 96° |
| 2026-05-07 11:58 | 51.13705 | 1.87816 | 45080 ft | 528 kts | 96° |
| 2026-05-07 11:58 | 51.13108 | 1.99460 | 45072 ft | 528 kts | 96° |
| 2026-05-07 11:59 | 51.12489 | 2.11110 | 45071 ft | 528 kts | 96° |
| 2026-05-07 11:59 | 51.11864 | 2.22677 | 45072 ft | 529 kts | 96° |
| 2026-05-07 12:00 | 51.11226 | 2.34336 | 45069 ft | 529 kts | 96° |
| 2026-05-07 12:00 | 51.10572 | 2.45993 | 45067 ft | 529 kts | 96° |
| 2026-05-07 12:01 | 51.09886 | 2.57639 | 45058 ft | 528 kts | 99° |
| 2026-05-07 12:01 | 51.07908 | 2.68793 | 45054 ft | 524 kts | 116° |
| 2026-05-07 12:02 | 51.04114 | 2.78574 | 45069 ft | 519 kts | 129° |
| 2026-05-07 12:02 | 50.99645 | 2.87574 | 45077 ft | 519 kts | 129° |
| 2026-05-07 12:03 | 50.95645 | 2.97114 | 45077 ft | 520 kts | 124° |
| 2026-05-07 12:03 | 50.91509 | 3.06512 | 45077 ft | 519 kts | 128° |
| 2026-05-07 12:04 | 50.87377 | 3.15896 | 45073 ft | 520 kts | 126° |
| 2026-05-07 12:04 | 50.83265 | 3.25307 | 45074 ft | 519 kts | 127° |
| 2026-05-07 12:05 | 50.79102 | 3.34646 | 45059 ft | 520 kts | 126° |
| 2026-05-07 12:05 | 50.74973 | 3.44027 | 45059 ft | 520 kts | 127° |
| 2026-05-07 12:06 | 50.70824 | 3.53294 | 45062 ft | 521 kts | 127° |
| 2026-05-07 12:06 | 50.66667 | 3.62641 | 45065 ft | 521 kts | 127° |
| 2026-05-07 12:07 | 50.62478 | 3.71960 | 45063 ft | 521 kts | 127° |
| 2026-05-07 12:07 | 50.58296 | 3.81273 | 45060 ft | 521 kts | 127° |
| 2026-05-07 12:08 | 50.54293 | 3.90780 | 45069 ft | 521 kts | 124° |
| 2026-05-07 12:08 | 50.50346 | 4.00323 | 45070 ft | 521 kts | 125° |
| 2026-05-07 12:09 | 50.46380 | 4.09861 | 45072 ft | 521 kts | 125° |
| 2026-05-07 12:09 | 50.42408 | 4.19393 | 45076 ft | 522 kts | 125° |
| 2026-05-07 12:10 | 50.38423 | 4.28910 | 45079 ft | 523 kts | 125° |
| 2026-05-07 12:10 | 50.34430 | 4.38420 | 45079 ft | 523 kts | 125° |
| 2026-05-07 12:11 | 50.30427 | 4.47916 | 45065 ft | 523 kts | 125° |
| 2026-05-07 12:11 | 50.26416 | 4.57398 | 45065 ft | 523 kts | 125° |
| 2026-05-07 12:12 | 50.22398 | 4.66861 | 45067 ft | 522 kts | 125° |
| 2026-05-07 12:12 | 50.18403 | 4.76237 | 45068 ft | 522 kts | 125° |
| 2026-05-07 12:13 | 50.14368 | 4.85672 | 45062 ft | 522 kts | 126° |
| 2026-05-07 12:13 | 50.10326 | 4.95090 | 45059 ft | 522 kts | 126° |
| 2026-05-07 12:14 | 50.06279 | 5.04487 | 45055 ft | 522 kts | 126° |
| 2026-05-07 12:14 | 50.02227 | 5.13863 | 45057 ft | 522 kts | 126° |
| 2026-05-07 12:15 | 49.98165 | 5.23226 | 45056 ft | 523 kts | 126° |
| 2026-05-07 12:15 | 49.94092 | 5.32582 | 45057 ft | 523 kts | 126° |
| 2026-05-07 12:16 | 49.90014 | 5.41918 | 45061 ft | 523 kts | 126° |
| 2026-05-07 12:16 | 49.85923 | 5.51249 | 45049 ft | 523 kts | 126° |
| 2026-05-07 12:17 | 49.81832 | 5.60551 | 45053 ft | 522 kts | 126° |
| 2026-05-07 12:17 | 49.77732 | 5.69836 | 45051 ft | 522 kts | 126° |
| 2026-05-07 12:18 | 49.73621 | 5.79116 | 45048 ft | 523 kts | 126° |
| 2026-05-07 12:18 | 49.69504 | 5.88376 | 45042 ft | 523 kts | 126° |
| 2026-05-07 12:19 | 49.65382 | 5.97617 | 45043 ft | 523 kts | 126° |
| 2026-05-07 12:19 | 49.61250 | 6.06847 | 45045 ft | 523 kts | 126° |
| 2026-05-07 12:20 | 49.57109 | 6.16064 | 45045 ft | 523 kts | 126° |
| 2026-05-07 12:20 | 49.52956 | 6.25277 | 45043 ft | 523 kts | 127° |
| 2026-05-07 12:21 | 49.48704 | 6.34346 | 45033 ft | 521 kts | 132° |
| 2026-05-07 12:21 | 49.43286 | 6.41604 | 45043 ft | 516 kts | 149° |
| 2026-05-07 12:22 | 49.36852 | 6.46322 | 45054 ft | 512 kts | 161° |
| 2026-05-07 12:22 | 49.30189 | 6.50166 | 45049 ft | 512 kts | 159° |
| 2026-05-07 12:23 | 49.23744 | 6.54851 | 45053 ft | 512 kts | 156° |
| 2026-05-07 12:23 | 49.18308 | 6.58414 | 45049 ft | 511 kts | 160° |
| 2026-05-07 12:24 | 49.10741 | 6.63530 | 45034 ft | 512 kts | 157° |
| 2026-05-07 12:24 | 49.04216 | 6.67890 | 45043 ft | 511 kts | 159° |
| 2026-05-07 12:25 | 48.97749 | 6.72407 | 45029 ft | 513 kts | 152° |
| 2026-05-07 12:25 | 48.92664 | 6.77218 | 45049 ft | 514 kts | 149° |
| 2026-05-07 12:26 | 48.86580 | 6.82907 | 45040 ft | 513 kts | 151° |
| 2026-05-07 12:26 | 48.80480 | 6.88555 | 45042 ft | 514 kts | 150° |
| 2026-05-07 12:27 | 48.74431 | 6.94196 | 45039 ft | 514 kts | 151° |
| 2026-05-07 12:27 | 48.68321 | 6.99822 | 45039 ft | 514 kts | 150° |
| 2026-05-07 12:28 | 48.62219 | 7.05470 | 45041 ft | 514 kts | 150° |
| 2026-05-07 12:28 | 48.56108 | 7.11077 | 45042 ft | 515 kts | 150° |
| 2026-05-07 12:29 | 48.49984 | 7.16703 | 45044 ft | 515 kts | 150° |
| 2026-05-07 12:29 | 48.43622 | 7.21530 | 45031 ft | 510 kts | 163° |
| 2026-05-07 12:30 | 48.36844 | 7.24639 | 45049 ft | 509 kts | 165° |
| 2026-05-07 12:30 | 48.30114 | 7.27981 | 45053 ft | 510 kts | 163° |
| 2026-05-07 12:31 | 48.23353 | 7.31201 | 45048 ft | 509 kts | 165° |
| 2026-05-07 12:31 | 48.16605 | 7.34454 | 45041 ft | 510 kts | 164° |
| 2026-05-07 12:32 | 48.09853 | 7.37694 | 45040 ft | 509 kts | 165° |
| 2026-05-07 12:32 | 48.03105 | 7.40910 | 45040 ft | 509 kts | 164° |
| 2026-05-07 12:33 | 47.92976 | 7.45736 | 45043 ft | 509 kts | 165° |
| 2026-05-07 12:33 | 47.86229 | 7.48945 | 45041 ft | 509 kts | 165° |
| 2026-05-07 12:34 | 47.79476 | 7.52138 | 45046 ft | 509 kts | 165° |
| 2026-05-07 12:34 | 47.72762 | 7.55476 | 45032 ft | 511 kts | 160° |
| 2026-05-07 12:35 | 47.66261 | 7.59745 | 45041 ft | 511 kts | 159° |
| 2026-05-07 12:35 | 47.59739 | 7.63941 | 45020 ft | 511 kts | 160° |
| 2026-05-07 12:36 | 47.53220 | 7.68153 | 45011 ft | 511 kts | 159° |
| 2026-05-07 12:36 | 47.46739 | 7.72326 | 45018 ft | 512 kts | 160° |
| 2026-05-07 12:37 | 47.40205 | 7.76513 | 45018 ft | 512 kts | 159° |
| 2026-05-07 12:37 | 47.33668 | 7.80702 | 45020 ft | 512 kts | 160° |
| 2026-05-07 12:38 | 47.27124 | 7.84875 | 45017 ft | 513 kts | 160° |
| 2026-05-07 12:38 | 47.20569 | 7.89050 | 45017 ft | 514 kts | 160° |
| 2026-05-07 12:39 | 47.14000 | 7.93218 | 45016 ft | 514 kts | 160° |
| 2026-05-07 12:39 | 47.07428 | 7.97381 | 45018 ft | 514 kts | 160° |
| 2026-05-07 12:40 | 47.00846 | 8.01535 | 45011 ft | 515 kts | 160° |
| 2026-05-07 12:40 | 46.94255 | 8.05686 | 45019 ft | 516 kts | 160° |
| 2026-05-07 12:41 | 46.87654 | 8.09831 | 45011 ft | 516 kts | 160° |
| 2026-05-07 12:41 | 46.81046 | 8.13970 | 45013 ft | 517 kts | 160° |
| 2026-05-07 12:42 | 46.74433 | 8.18100 | 45021 ft | 518 kts | 160° |
| 2026-05-07 12:42 | 46.67803 | 8.22231 | 45020 ft | 519 kts | 160° |
| 2026-05-07 12:43 | 46.61158 | 8.26359 | 45011 ft | 520 kts | 160° |
| 2026-05-07 12:43 | 46.54497 | 8.30487 | 45002 ft | 520 kts | 160° |
| 2026-05-07 12:44 | 46.47836 | 8.34603 | 45028 ft | 520 kts | 160° |
| 2026-05-07 12:44 | 46.44540 | 8.36639 | 45015 ft | 505 kts | 160° |
| 2026-05-07 12:44 | 46.41384 | 8.38592 | 44977 ft | 482 kts | 160° |
| 2026-05-07 12:45 | 46.38361 | 8.40452 | 44851 ft | 463 kts | 161° |
| 2026-05-07 12:45 | 46.35416 | 8.42252 | 44032 ft | 459 kts | 161° |
| 2026-05-07 12:45 | 46.32466 | 8.44053 | 42937 ft | 461 kts | 161° |
| 2026-05-07 12:45 | 46.29552 | 8.45832 | 41925 ft | 460 kts | 162° |
| 2026-05-07 12:46 | 46.26517 | 8.47215 | 40821 ft | 455 kts | 171° |
| 2026-05-07 12:46 | 46.23404 | 8.47878 | 39773 ft | 451 kts | 178° |
| 2026-05-07 12:46 | 46.20283 | 8.48236 | 38812 ft | 449 kts | 180° |
| 2026-05-07 12:46 | 46.17171 | 8.48608 | 37107 ft | 453 kts | 179° |
| 2026-05-07 12:47 | 46.13962 | 8.49092 | 34599 ft | 476 kts | 178° |
| 2026-05-07 12:47 | 46.10621 | 8.49929 | 32224 ft | 497 kts | 169° |
| 2026-05-07 12:47 | 46.07331 | 8.51518 | 31144 ft | 481 kts | 163° |
| 2026-05-07 12:47 | 46.04288 | 8.53169 | 29811 ft | 469 kts | 163° |
| 2026-05-07 12:48 | 46.01252 | 8.54804 | 28175 ft | 462 kts | 163° |
| 2026-05-07 12:48 | 45.98276 | 8.56396 | 26795 ft | 451 kts | 163° |
| 2026-05-07 12:48 | 45.95332 | 8.57977 | 25479 ft | 441 kts | 162° |
| 2026-05-07 12:48 | 45.92535 | 8.59481 | 24276 ft | 431 kts | 162° |
| 2026-05-07 12:49 | 45.89804 | 8.61126 | 22843 ft | 423 kts | 153° |
| 2026-05-07 12:49 | 45.87440 | 8.63623 | 21399 ft | 418 kts | 142° |
| 2026-05-07 12:49 | 45.85219 | 8.66238 | 20086 ft | 409 kts | 142° |
| 2026-05-07 12:49 | 45.83028 | 8.68794 | 18775 ft | 403 kts | 143° |
| 2026-05-07 12:50 | 45.80856 | 8.71292 | 17373 ft | 398 kts | 143° |
| 2026-05-07 12:50 | 45.78714 | 8.73757 | 16099 ft | 390 kts | 143° |
| 2026-05-07 12:50 | 45.76621 | 8.76150 | 14871 ft | 380 kts | 144° |
| 2026-05-07 12:50 | 45.74377 | 8.78059 | 13591 ft | 372 kts | 153° |
| 2026-05-07 12:51 | 45.72108 | 8.79741 | 12368 ft | 363 kts | 154° |
| 2026-05-07 12:51 | 45.69903 | 8.81400 | 11487 ft | 349 kts | 153° |
| 2026-05-07 12:51 | 45.67854 | 8.83006 | 11139 ft | 323 kts | 152° |
| 2026-05-07 12:51 | 45.65964 | 8.84475 | 10979 ft | 296 kts | 153° |
| 2026-05-07 12:52 | 45.64191 | 8.85826 | 10437 ft | 287 kts | 153° |
| 2026-05-07 12:52 | 45.62427 | 8.87165 | 9740 ft | 285 kts | 153° |
| 2026-05-07 12:52 | 45.60574 | 8.88082 | 8939 ft | 282 kts | 169° |
| 2026-05-07 12:52 | 45.58662 | 8.88567 | 8322 ft | 276 kts | 171° |
| 2026-05-07 12:53 | 45.56776 | 8.89028 | 7672 ft | 274 kts | 170° |
| 2026-05-07 12:53 | 45.54911 | 8.89543 | 7054 ft | 271 kts | 169° |
| 2026-05-07 12:53 | 45.53068 | 8.90062 | 6437 ft | 269 kts | 169° |
| 2026-05-07 12:53 | 45.51240 | 8.90558 | 5788 ft | 266 kts | 170° |
| 2026-05-07 12:54 | 45.49431 | 8.91045 | 5151 ft | 263 kts | 169° |
| 2026-05-07 12:54 | 45.47640 | 8.91532 | 4509 ft | 261 kts | 169° |
| 2026-05-07 12:54 | 45.45865 | 8.91964 | 3826 ft | 257 kts | 176° |
| 2026-05-07 12:54 | 45.44131 | 8.91351 | 2978 ft | 262 kts | 212° |
| 2026-05-07 12:55 | 45.43091 | 8.89408 | 2840 ft | 238 kts | 251° |
| 2026-05-07 12:55 | 45.42828 | 8.87227 | 2975 ft | 220 kts | 263° |
| 2026-05-07 12:55 | 45.42720 | 8.84993 | 2962 ft | 228 kts | 275° |
| 2026-05-07 12:55 | 45.43419 | 8.83013 | 2930 ft | 228 kts | 314° |
| 2026-05-07 12:56 | 45.44662 | 8.81607 | 2997 ft | 231 kts | 323° |
| 2026-05-07 12:56 | 45.45950 | 8.80265 | 2990 ft | 233 kts | 323° |
| 2026-05-07 12:56 | 45.47270 | 8.78883 | 2982 ft | 232 kts | 323° |
| 2026-05-07 12:56 | 45.48546 | 8.77559 | 2974 ft | 221 kts | 325° |
| 2026-05-07 12:57 | 45.49922 | 8.76915 | 2926 ft | 193 kts | 351° |
| 2026-05-07 12:57 | 45.51224 | 8.76612 | 2775 ft | 196 kts | 349° |
| 2026-05-07 12:57 | 45.52563 | 8.76234 | 2504 ft | 182 kts | 348° |
| 2026-05-07 12:57 | 45.53719 | 8.75915 | 2265 ft | 161 kts | 349° |
| 2026-05-07 12:58 | 45.54810 | 8.75615 | 2066 ft | 162 kts | 349° |
| 2026-05-07 12:58 | 45.55858 | 8.75326 | 1867 ft | 146 kts | 349° |
| 2026-05-07 12:58 | 45.56796 | 8.75067 | 1699 ft | 130 kts | 348° |
| 2026-05-07 12:58 | 45.57661 | 8.74828 | 1525 ft | 125 kts | 348° |
| 2026-05-07 12:59 | 45.58500 | 8.74596 | 1364 ft | 121 kts | 349° |
| 2026-05-07 12:59 | 45.59333 | 8.74363 | 1211 ft | 124 kts | 349° |
| 2026-05-07 12:59 | 45.60188 | 8.74132 | 1057 ft | 126 kts | 349° |
| 2026-05-07 12:59 | 45.61066 | 8.73893 | 897 ft | 126 kts | 349° |
| 2026-05-07 13:00 | 45.61905 | 8.73656 | 785 ft | 123 kts | 348° |
| 2026-05-07 13:00 | 45.62699 | 8.73435 | 739 ft | 105 kts | 349° |
| 2026-05-07 13:00 | 45.63335 | 8.73262 | 736 ft | 82 kts | 349° |
| 2026-05-07 13:00 | 45.63634 | 8.73150 | 738 ft | 30 kts | 327° |
| 2026-05-07 13:01 | 45.63788 | 8.72966 | 737 ft | 28 kts | 306° |
| 2026-05-07 13:01 | 45.63864 | 8.72812 | 737 ft | 9 kts | 302° |
| 2026-05-07 13:01 | 45.63897 | 8.72738 | 737 ft | 9 kts | 303° |
| 2026-05-07 13:01 | 45.63929 | 8.72666 | 737 ft | 9 kts | 303° |
| 2026-05-07 13:02 | 45.63956 | 8.72598 | 736 ft | 8 kts | 283° |
| 2026-05-07 13:02 | 45.63948 | 8.72507 | 736 ft | 11 kts | 260° |
| 2026-05-07 13:02 | 45.63931 | 8.72375 | 737 ft | 16 kts | 259° |
| 2026-05-07 13:02 | 45.63920 | 8.72190 | 737 ft | 21 kts | 268° |
| 2026-05-07 13:03 | 45.63905 | 8.71966 | 736 ft | 22 kts | 258° |
| 2026-05-07 13:03 | 45.63819 | 8.71835 | 737 ft | 18 kts | 187° |
| 2026-05-07 13:03 | 45.63696 | 8.71853 | 736 ft | 18 kts | 168° |
| 2026-05-07 13:03 | 45.63577 | 8.71887 | 737 ft | 17 kts | 168° |
| 2026-05-07 13:04 | 45.63460 | 8.71919 | 737 ft | 17 kts | 170° |
| 2026-05-07 13:04 | 45.63346 | 8.71949 | 737 ft | 17 kts | 169° |
| 2026-05-07 13:04 | 45.63234 | 8.71981 | 736 ft | 16 kts | 169° |
| 2026-05-07 13:04 | 45.63124 | 8.72011 | 737 ft | 16 kts | 169° |
| 2026-05-07 13:05 | 45.63020 | 8.72024 | 738 ft | 13 kts | 202° |
| 2026-05-07 13:05 | 45.62988 | 8.71936 | 737 ft | 9 kts | 260° |
| 2026-05-07 13:05 | 45.62979 | 8.71852 | 737 ft | 8 kts | 259° |
| 2026-05-07 13:05 | 45.62965 | 8.71776 | 737 ft | 7 kts | 237° |
| 2026-05-07 13:06 | 45.62938 | 8.71751 | 737 ft | 3 kts | 184° |
| 2026-05-07 13:06 | 45.62908 | 8.71758 | 737 ft | 5 kts | 168° |
| 2026-05-07 13:06 | 45.62896 | 8.71775 | 736 ft | 4 kts | 97° |
| 2026-05-07 13:06 | 45.62902 | 8.71833 | 736 ft | 7 kts | 79° |
| 2026-05-07 13:07 | 45.62907 | 8.71866 | 737 ft | 0 kts | 79° |